Time;durP1;ratioP1;P1;durP2;ratioP2;P2;SDS_P1;SDS_P2;PMS_P1;PMS_P2;Temp;Humidity;BMP_temperature;BMP_pressure;BME280_temperature;BME280_humidity;BME280_pressure;Samples;Min_cycle;Max_cycle;Signal;HPM_P1;HPM_P2
2021/10/07 00:01:01;;;;;;;26.93;24.83;;;;;;;;;;5092833;28;20440;-83
2021/10/07 00:03:28;;;;;;;24.97;23.17;;;;;;;;;;5092282;28;20467;-82
2021/10/07 00:05:56;;;;;;;25.40;23.67;;;;;;;;;;5092585;28;20415;-82
2021/10/07 00:08:23;;;;;;;24.70;23.10;;;;;;;;;;5092776;28;20399;-83
2021/10/07 00:10:52;;;;;;;25.00;23.40;;;;;;;;;;5092633;28;20824;-83
2021/10/07 00:13:20;;;;;;;22.87;21.47;;;;;;;;;;5092371;28;20896;-83
2021/10/07 00:15:47;;;;;;;24.97;23.17;;;;;;;;;;5092861;28;20415;-83
2021/10/07 00:18:16;;;;;;;25.13;23.33;;;;;;;;;;5092470;28;20447;-83
2021/10/07 00:20:44;;;;;;;25.73;23.93;;;;;;;;;;5092585;28;20416;-82
2021/10/07 00:23:12;;;;;;;26.43;24.53;;;;;;;;;;5092627;28;20491;-82
2021/10/07 00:25:39;;;;;;;27.07;25.17;;;;;;;;;;5093369;28;20512;-83
2021/10/07 00:28:09;;;;;;;25.57;23.60;;;;;;;;;;5095106;28;20432;-82
2021/10/07 00:30:39;;;;;;;26.80;24.77;;;;;;;;;;5096111;28;20486;-83
2021/10/07 00:36:01;;;;;;;24.97;23.07;;;;;;;;;;5095774;28;20436;-82
2021/10/07 00:41:13;;;;;;;25.20;23.30;;;;;;;;;;5096019;28;20421;-82
2021/10/07 00:43:42;;;;;;;27.30;25.10;;;;;;;;;;5095631;28;20952;-83
2021/10/07 00:46:09;;;;;;;25.40;23.70;;;;;;;;;;5095497;28;20903;-83
2021/10/07 00:48:36;;;;;;;26.17;24.03;;;;;;;;;;5095944;28;20441;-83
2021/10/07 00:51:04;;;;;;;25.30;23.63;;;;;;;;;;5095811;28;20433;-82
2021/10/07 00:53:32;;;;;;;26.40;24.37;;;;;;;;;;5095590;28;20444;-83
2021/10/07 00:56:01;;;;;;;24.77;22.93;;;;;;;;;;5095328;28;20433;-83
2021/10/07 00:58:28;;;;;;;26.00;24.00;;;;;;;;;;5095441;28;20433;-83
2021/10/07 01:00:57;;;;;;;25.40;23.40;;;;;;;;;;5095291;28;20411;-82
2021/10/07 01:03:24;;;;;;;25.90;24.13;;;;;;;;;;5095535;28;20446;-83
2021/10/07 01:05:52;;;;;;;24.20;22.40;;;;;;;;;;5095672;28;20416;-83
2021/10/07 01:08:19;;;;;;;26.97;25.00;;;;;;;;;;5095201;28;20408;-83
2021/10/07 01:10:47;;;;;;;26.37;24.53;;;;;;;;;;5095450;28;20443;-83
2021/10/07 01:13:14;;;;;;;25.50;23.60;;;;;;;;;;5093944;28;20430;-83
2021/10/07 01:15:42;;;;;;;26.73;24.37;;;;;;;;;;5095480;28;20426;-83
2021/10/07 01:18:11;;;;;;;25.60;23.73;;;;;;;;;;5094990;28;20463;-83
2021/10/07 01:20:41;;;;;;;26.87;24.77;;;;;;;;;;5094969;28;20437;-82
2021/10/07 01:23:09;;;;;;;28.50;26.30;;;;;;;;;;5095161;28;20477;-83
2021/10/07 01:25:36;;;;;;;27.87;25.70;;;;;;;;;;5094824;28;20400;-83
2021/10/07 01:28:03;;;;;;;25.80;23.83;;;;;;;;;;5093526;28;20453;-82
2021/10/07 01:30:31;;;;;;;27.63;25.33;;;;;;;;;;5095105;28;20451;-83
2021/10/07 01:32:59;;;;;;;27.33;25.03;;;;;;;;;;5095162;28;20495;-83
2021/10/07 01:35:26;;;;;;;27.47;25.10;;;;;;;;;;5094551;28;20408;-83
2021/10/07 01:37:56;;;;;;;27.87;25.77;;;;;;;;;;5095100;28;20426;-83
2021/10/07 01:40:23;;;;;;;27.47;25.27;;;;;;;;;;5094598;28;20423;-83
2021/10/07 01:42:51;;;;;;;27.67;25.40;;;;;;;;;;5094458;28;20455;-83
2021/10/07 01:45:19;;;;;;;27.93;25.73;;;;;;;;;;5094478;28;20778;-83
2021/10/07 01:47:46;;;;;;;26.83;24.70;;;;;;;;;;5094727;28;20419;-83
2021/10/07 01:50:14;;;;;;;26.53;24.40;;;;;;;;;;5094669;28;20408;-82
2021/10/07 01:52:41;;;;;;;25.57;23.67;;;;;;;;;;5094778;28;20429;-83
2021/10/07 01:55:11;;;;;;;26.10;24.00;;;;;;;;;;5094337;28;20407;-83
2021/10/07 01:57:39;;;;;;;27.93;25.70;;;;;;;;;;5094277;28;20411;-83
2021/10/07 02:00:07;;;;;;;25.63;23.63;;;;;;;;;;5094210;28;20947;-83
2021/10/07 02:02:35;;;;;;;27.50;25.40;;;;;;;;;;5094410;28;20439;-83
2021/10/07 02:05:02;;;;;;;27.90;25.60;;;;;;;;;;5094345;28;20468;-83
2021/10/07 02:07:30;;;;;;;29.27;26.80;;;;;;;;;;5094033;28;20780;-82
2021/10/07 02:09:57;;;;;;;27.70;25.60;;;;;;;;;;5094142;28;20789;-83
2021/10/07 02:12:26;;;;;;;29.20;26.60;;;;;;;;;;5093976;28;20869;-83
2021/10/07 02:14:53;;;;;;;29.83;27.27;;;;;;;;;;5093970;28;20407;-83
2021/10/07 02:17:21;;;;;;;31.67;28.70;;;;;;;;;;5093601;28;20433;-82
2021/10/07 02:19:48;;;;;;;32.33;29.33;;;;;;;;;;5094084;28;20777;-82
2021/10/07 02:22:15;;;;;;;32.40;29.40;;;;;;;;;;5094045;28;20419;-83
2021/10/07 02:24:43;;;;;;;29.40;27.10;;;;;;;;;;5093599;28;20905;-83
2021/10/07 02:27:10;;;;;;;31.50;28.70;;;;;;;;;;5093828;28;20411;-83
2021/10/07 02:29:39;;;;;;;29.33;26.73;;;;;;;;;;5093469;28;20435;-83
2021/10/07 02:32:07;;;;;;;27.30;24.90;;;;;;;;;;5093917;28;20779;-83
2021/10/07 02:34:34;;;;;;;28.53;25.93;;;;;;;;;;5093525;28;20430;-82
2021/10/07 02:37:02;;;;;;;30.07;27.33;;;;;;;;;;5093583;28;20445;-83
2021/10/07 02:39:29;;;;;;;29.37;27.07;;;;;;;;;;5093415;28;20427;-83
2021/10/07 02:41:56;;;;;;;30.93;28.07;;;;;;;;;;5093486;28;20429;-83
2021/10/07 02:44:24;;;;;;;31.20;28.60;;;;;;;;;;5093156;28;20840;-82
2021/10/07 02:46:53;;;;;;;31.43;28.80;;;;;;;;;;5093282;28;20909;-83
2021/10/07 02:49:21;;;;;;;30.80;28.20;;;;;;;;;;5093371;28;20437;-82
2021/10/07 02:51:48;;;;;;;30.23;27.50;;;;;;;;;;5093318;28;20452;-83
2021/10/07 02:54:15;;;;;;;31.83;28.67;;;;;;;;;;5093370;28;20444;-83
2021/10/07 02:56:43;;;;;;;32.27;29.40;;;;;;;;;;5093089;28;20407;-83
2021/10/07 02:59:10;;;;;;;32.17;28.93;;;;;;;;;;5093378;28;20439;-83
2021/10/07 03:01:38;;;;;;;31.03;28.27;;;;;;;;;;5093487;28;20411;-83
2021/10/07 03:04:07;;;;;;;31.40;28.80;;;;;;;;;;5093303;28;20451;-82
2021/10/07 03:06:34;;;;;;;30.70;27.90;;;;;;;;;;5093332;28;20419;-82
2021/10/07 03:09:02;;;;;;;31.63;29.10;;;;;;;;;;5093360;28;20422;-82
2021/10/07 03:11:30;;;;;;;32.60;29.20;;;;;;;;;;5093560;28;20511;-82
2021/10/07 03:13:57;;;;;;;33.30;30.30;;;;;;;;;;5093070;28;20414;-82
2021/10/07 03:16:24;;;;;;;30.70;28.10;;;;;;;;;;5093181;28;20415;-83
2021/10/07 03:18:52;;;;;;;33.20;30.30;;;;;;;;;;5092862;28;20569;-83
2021/10/07 03:21:21;;;;;;;31.83;29.03;;;;;;;;;;5093250;28;20427;-83
2021/10/07 03:23:48;;;;;;;31.50;28.47;;;;;;;;;;5093101;28;20479;-82
2021/10/07 03:26:15;;;;;;;29.93;27.43;;;;;;;;;;5092943;28;20453;-83
2021/10/07 03:28:43;;;;;;;29.80;27.20;;;;;;;;;;5092920;28;20419;-83
2021/10/07 03:31:10;;;;;;;32.37;29.10;;;;;;;;;;5093024;28;20966;-82
2021/10/07 03:33:38;;;;;;;33.17;29.87;;;;;;;;;;5092815;28;20908;-81
2021/10/07 03:36:05;;;;;;;30.57;27.73;;;;;;;;;;5091920;28;20421;-83
2021/10/07 03:38:34;;;;;;;30.67;27.97;;;;;;;;;;5093192;28;20423;-83
2021/10/07 03:41:03;;;;;;;30.97;28.20;;;;;;;;;;5091803;28;20423;-83
2021/10/07 03:43:30;;;;;;;32.87;30.00;;;;;;;;;;5092738;28;20462;-83
2021/10/07 03:45:58;;;;;;;30.23;27.43;;;;;;;;;;5092767;28;20419;-83
2021/10/07 03:48:25;;;;;;;30.80;28.23;;;;;;;;;;5093084;28;20418;-83
2021/10/07 03:50:52;;;;;;;32.23;29.53;;;;;;;;;;5092661;28;20408;-83
2021/10/07 03:53:20;;;;;;;31.83;29.00;;;;;;;;;;5093084;28;20437;-83
2021/10/07 03:55:49;;;;;;;31.37;28.67;;;;;;;;;;5092839;28;20436;-83
2021/10/07 03:58:16;;;;;;;31.43;28.73;;;;;;;;;;5092864;28;20411;-83
2021/10/07 04:00:43;;;;;;;58.77;32.70;;;;;;;;;;5093423;28;20440;-81
2021/10/07 04:03:11;;;;;;;32.03;28.97;;;;;;;;;;5096681;28;20514;-83
2021/10/07 04:05:38;;;;;;;32.47;29.13;;;;;;;;;;5096725;28;20418;-83
2021/10/07 04:08:06;;;;;;;29.97;27.37;;;;;;;;;;5096922;28;20444;-83
2021/10/07 04:10:33;;;;;;;29.70;26.90;;;;;;;;;;5096680;28;20445;-83
2021/10/07 04:13:02;;;;;;;33.50;30.10;;;;;;;;;;5096316;28;20418;-83
2021/10/07 04:15:29;;;;;;;33.00;29.83;;;;;;;;;;5096570;28;20407;-83
2021/10/07 04:17:57;;;;;;;32.63;29.43;;;;;;;;;;5096120;28;20472;-82
2021/10/07 04:20:24;;;;;;;33.27;29.83;;;;;;;;;;5096421;28;20903;-83
2021/10/07 04:22:52;;;;;;;32.67;29.27;;;;;;;;;;5095985;28;20813;-83
2021/10/07 04:25:19;;;;;;;32.40;29.40;;;;;;;;;;5096195;28;20429;-83
2021/10/07 04:27:47;;;;;;;32.00;29.13;;;;;;;;;;5095896;28;20440;-83
2021/10/07 04:30:16;;;;;;;32.97;29.70;;;;;;;;;;5096086;27;20567;-84
2021/10/07 04:32:43;;;;;;;39.07;30.30;;;;;;;;;;5096107;28;20921;-82
2021/10/07 04:35:11;;;;;;;33.17;29.70;;;;;;;;;;5096211;28;20433;-83
2021/10/07 04:37:38;;;;;;;32.13;29.20;;;;;;;;;;5095919;28;20412;-83
2021/10/07 04:40:06;;;;;;;32.33;29.30;;;;;;;;;;5096094;28;20437;-83
2021/10/07 04:42:34;;;;;;;33.73;30.23;;;;;;;;;;5096194;28;20441;-83
2021/10/07 04:45:01;;;;;;;33.13;29.93;;;;;;;;;;5095652;28;20508;-83
2021/10/07 04:47:30;;;;;;;34.60;31.10;;;;;;;;;;5095729;28;20437;-82
2021/10/07 04:49:58;;;;;;;33.83;30.90;;;;;;;;;;5095701;28;20437;-83
2021/10/07 04:52:25;;;;;;;31.77;28.97;;;;;;;;;;5095963;28;20452;-83
2021/10/07 04:54:53;;;;;;;33.93;30.47;;;;;;;;;;5095877;28;20444;-83
2021/10/07 04:57:20;;;;;;;33.53;30.20;;;;;;;;;;5095594;28;20436;-83
2021/10/07 04:59:47;;;;;;;32.03;28.90;;;;;;;;;;5095872;28;20433;-83
2021/10/07 05:02:15;;;;;;;34.80;31.30;;;;;;;;;;5095614;28;20486;-83
2021/10/07 05:04:44;;;;;;;34.73;31.33;;;;;;;;;;5095201;28;20479;-83
2021/10/07 05:07:11;;;;;;;36.57;32.07;;;;;;;;;;5095614;28;20440;-83
2021/10/07 05:09:39;;;;;;;36.97;33.13;;;;;;;;;;5095285;28;20426;-83
2021/10/07 05:12:06;;;;;;;34.20;31.10;;;;;;;;;;5095090;28;20440;-83
2021/10/07 05:14:34;;;;;;;44.40;34.33;;;;;;;;;;5095197;28;20411;-82
2021/10/07 05:17:01;;;;;;;38.63;34.47;;;;;;;;;;5095556;28;20415;-83
2021/10/07 05:19:29;;;;;;;37.20;33.53;;;;;;;;;;5094959;28;20457;-83
2021/10/07 05:21:58;;;;;;;34.97;31.53;;;;;;;;;;5095202;28;20407;-83
2021/10/07 05:24:25;;;;;;;35.50;31.90;;;;;;;;;;5095117;28;20488;-83
2021/10/07 05:26:53;;;;;;;35.13;31.63;;;;;;;;;;5094764;28;20423;-83
2021/10/07 05:29:20;;;;;;;35.50;31.90;;;;;;;;;;5094937;28;20776;-83
2021/10/07 05:31:49;;;;;;;36.53;32.90;;;;;;;;;;5094844;28;20475;-83
2021/10/07 05:34:16;;;;;;;36.90;33.07;;;;;;;;;;5094847;28;20429;-82
2021/10/07 05:36:44;;;;;;;37.00;33.10;;;;;;;;;;5095098;28;20436;-82
2021/10/07 05:39:12;;;;;;;35.37;31.97;;;;;;;;;;5094593;28;20472;-83
2021/10/07 05:41:40;;;;;;;38.10;34.23;;;;;;;;;;5094958;28;20440;-83
2021/10/07 05:44:10;;;;;;;37.27;33.43;;;;;;;;;;5094502;28;20483;-83
2021/10/07 05:46:37;;;;;;;38.50;34.03;;;;;;;;;;5094642;28;20424;-83
2021/10/07 05:49:05;;;;;;;36.47;32.67;;;;;;;;;;5094734;28;20403;-83
2021/10/07 05:51:33;;;;;;;35.70;32.07;;;;;;;;;;5094525;28;20423;-83
2021/10/07 05:54:00;;;;;;;37.70;33.67;;;;;;;;;;5094410;28;20915;-83
2021/10/07 05:56:29;;;;;;;36.90;33.10;;;;;;;;;;5094611;28;20427;-83
2021/10/07 05:58:56;;;;;;;36.63;32.83;;;;;;;;;;5094623;28;20422;-83
2021/10/07 06:01:24;;;;;;;35.23;31.77;;;;;;;;;;5094531;28;20420;-82
2021/10/07 06:03:51;;;;;;;36.30;32.37;;;;;;;;;;5093820;28;20480;-83
2021/10/07 06:06:19;;;;;;;36.83;32.83;;;;;;;;;;5093640;28;20411;-82
2021/10/07 06:08:46;;;;;;;34.97;31.53;;;;;;;;;;5071828;28;20428;-83
2021/10/07 06:11:14;;;;;;;36.87;32.83;;;;;;;;;;5074087;28;20427;-84
2021/10/07 06:13:43;;;;;;;36.63;32.70;;;;;;;;;;5073773;28;20474;-83
2021/10/07 06:16:11;;;;;;;40.03;33.10;;;;;;;;;;5073989;28;20447;-83
2021/10/07 06:18:38;;;;;;;35.13;31.63;;;;;;;;;;5073653;28;20468;-82
2021/10/07 06:21:06;;;;;;;33.70;30.60;;;;;;;;;;5073840;28;20496;-82
2021/10/07 06:23:33;;;;;;;35.70;31.90;;;;;;;;;;5072613;28;21003;-83
2021/10/07 06:26:00;;;;;;;36.27;32.43;;;;;;;;;;5073770;28;20412;-83
2021/10/07 06:28:28;;;;;;;37.43;33.60;;;;;;;;;;5073427;28;20909;-82
2021/10/07 06:30:56;;;;;;;35.33;31.53;;;;;;;;;;5073690;28;20446;-82
2021/10/07 06:33:24;;;;;;;36.77;33.10;;;;;;;;;;5073366;28;20448;-82
2021/10/07 06:35:52;;;;;;;37.43;33.53;;;;;;;;;;5073539;28;20441;-83
2021/10/07 06:38:19;;;;;;;37.13;33.53;;;;;;;;;;5073538;28;20420;-83
2021/10/07 06:40:47;;;;;;;42.30;34.20;;;;;;;;;;5073252;28;20408;-83
2021/10/07 06:43:14;;;;;;;38.60;34.80;;;;;;;;;;5073382;28;20412;-82
2021/10/07 06:45:42;;;;;;;37.63;33.73;;;;;;;;;;5073019;28;20489;-83
2021/10/07 06:48:10;;;;;;;39.40;35.30;;;;;;;;;;5073160;28;20450;-83
2021/10/07 06:50:40;;;;;;;37.33;33.37;;;;;;;;;;5073373;28;20468;-83
2021/10/07 06:53:08;;;;;;;41.17;36.17;;;;;;;;;;5073407;28;20457;-83
2021/10/07 06:55:35;;;;;;;39.43;35.40;;;;;;;;;;5072997;28;20440;-83
2021/10/07 06:58:03;;;;;;;37.47;33.57;;;;;;;;;;5072922;28;20416;-82
2021/10/07 07:00:31;;;;;;;40.73;36.47;;;;;;;;;;5073136;28;20420;-83
2021/10/07 07:02:59;;;;;;;40.73;36.37;;;;;;;;;;5073074;28;20462;-82
2021/10/07 07:05:28;;;;;;;40.17;35.77;;;;;;;;;;5072928;28;20483;-83
2021/10/07 07:07:55;;;;;;;40.33;35.97;;;;;;;;;;5072954;28;20905;-83
2021/10/07 07:10:23;;;;;;;39.60;35.60;;;;;;;;;;5072839;28;20779;-83
2021/10/07 07:12:51;;;;;;;39.37;35.40;;;;;;;;;;5072979;28;20500;-83
2021/10/07 07:15:19;;;;;;;39.50;35.27;;;;;;;;;;5072730;28;20417;-83
2021/10/07 07:17:47;;;;;;;39.27;35.13;;;;;;;;;;5072603;28;20455;-82
2021/10/07 07:20:14;;;;;;;46.10;37.43;;;;;;;;;;5072881;28;20416;-81
2021/10/07 07:22:43;;;;;;;41.17;36.77;;;;;;;;;;5072744;28;20449;-83
2021/10/07 07:25:11;;;;;;;42.17;36.77;;;;;;;;;;5072884;28;20811;-83
2021/10/07 07:27:39;;;;;;;39.20;35.20;;;;;;;;;;5072892;28;20461;-82
2021/10/07 07:30:07;;;;;;;42.53;37.80;;;;;;;;;;5073031;28;20441;-83
2021/10/07 07:32:34;;;;;;;41.33;36.00;;;;;;;;;;5073061;28;20408;-83
2021/10/07 07:35:01;;;;;;;42.43;36.60;;;;;;;;;;5074128;28;20404;-83
2021/10/07 07:37:29;;;;;;;42.33;37.30;;;;;;;;;;5077162;28;20404;-83
2021/10/07 07:39:58;;;;;;;42.50;37.80;;;;;;;;;;5077583;28;20408;-83
2021/10/07 07:42:25;;;;;;;41.60;37.40;;;;;;;;;;5077145;28;20408;-84
2021/10/07 07:44:53;;;;;;;42.87;37.13;;;;;;;;;;5077455;28;20980;-83
2021/10/07 07:47:21;;;;;;;45.40;40.40;;;;;;;;;;5076641;28;20468;-83
2021/10/07 07:49:49;;;;;;;43.43;37.57;;;;;;;;;;5076451;28;20423;-83
2021/10/07 07:52:16;;;;;;;48.90;40.67;;;;;;;;;;5076481;28;20858;-83
2021/10/07 07:54:44;;;;;;;43.93;39.03;;;;;;;;;;5076658;28;20424;-82
2021/10/07 07:57:13;;;;;;;42.40;37.40;;;;;;;;;;5076362;28;20901;-83
2021/10/07 07:59:40;;;;;;;47.13;40.67;;;;;;;;;;5076478;28;20404;-84
2021/10/07 08:02:07;;;;;;;59.53;44.53;;;;;;;;;;5076942;28;20433;-96
2021/10/07 08:04:35;;;;;;;57.50;45.27;;;;;;;;;;5078715;28;20456;-95
2021/10/07 08:07:03;;;;;;;55.33;44.13;;;;;;;;;;5076552;28;20413;-83
2021/10/07 08:09:30;;;;;;;63.33;45.40;;;;;;;;;;5076658;28;20432;-84
2021/10/07 08:11:58;;;;;;;65.37;46.43;;;;;;;;;;5076168;28;20445;-83
2021/10/07 08:14:26;;;;;;;57.70;43.60;;;;;;;;;;5076442;28;20751;-83
2021/10/07 08:16:54;;;;;;;61.03;44.70;;;;;;;;;;5076400;28;20737;-83
2021/10/07 08:19:21;;;;;;;62.83;44.20;;;;;;;;;;5075807;28;20856;-83
2021/10/07 08:21:49;;;;;;;69.40;45.60;;;;;;;;;;5076020;28;20442;-83
2021/10/07 08:24:22;;;;;;;63.27;43.80;;;;;;;;;;5076056;28;20470;-83
2021/10/07 08:26:49;;;;;;;57.43;44.77;;;;;;;;;;5076030;28;20405;-83
2021/10/07 08:29:16;;;;;;;52.20;41.20;;;;;;;;;;5075962;28;20408;-82
2021/10/07 08:31:45;;;;;;;54.90;41.17;;;;;;;;;;5075715;28;20423;-82
2021/10/07 08:34:13;;;;;;;49.70;41.57;;;;;;;;;;5074500;28;20436;-82
2021/10/07 08:36:43;;;;;;;48.73;40.37;;;;;;;;;;5075921;28;20415;-82
2021/10/07 08:39:10;;;;;;;43.87;39.07;;;;;;;;;;5075988;28;20418;-83
2021/10/07 08:41:39;;;;;;;46.90;38.97;;;;;;;;;;5075402;28;20417;-83
2021/10/07 08:44:06;;;;;;;45.63;40.40;;;;;;;;;;5075255;28;20935;-82
2021/10/07 08:46:34;;;;;;;46.40;40.27;;;;;;;;;;5074605;28;20909;-83
2021/10/07 08:49:02;;;;;;;45.50;40.50;;;;;;;;;;5075774;28;20480;-84
2021/10/07 08:51:30;;;;;;;44.23;39.50;;;;;;;;;;5076482;28;20421;-83
2021/10/07 08:53:57;;;;;;;50.30;40.40;;;;;;;;;;5075521;28;20431;-83
2021/10/07 08:56:25;;;;;;;44.77;39.60;;;;;;;;;;5075587;28;20440;-83
2021/10/07 08:58:53;;;;;;;45.00;39.53;;;;;;;;;;5075226;28;20905;-84
2021/10/07 09:01:36;;;;;;;43.63;38.20;;;;;;;;;;5075342;28;20416;-83
2021/10/07 09:04:18;;;;;;;42.37;37.97;;;;;;;;;;5075121;28;20818;-82
2021/10/07 09:06:47;;;;;;;41.77;37.60;;;;;;;;;;5075497;28;20412;-83
2021/10/07 09:09:14;;;;;;;43.73;39.20;;;;;;;;;;5075161;28;20470;-83
2021/10/07 09:11:42;;;;;;;42.47;38.00;;;;;;;;;;5075481;28;20778;-83
2021/10/07 09:14:10;;;;;;;40.10;36.07;;;;;;;;;;5074978;28;20413;-83
2021/10/07 09:16:43;;;;;;;39.60;35.80;;;;;;;;;;5073999;28;20461;-83
2021/10/07 09:19:19;;;;;;;40.90;36.93;;;;;;;;;;5074694;28;20457;-82
2021/10/07 09:21:48;;;;;;;41.00;37.10;;;;;;;;;;5074937;28;20437;-83
2021/10/07 09:24:32;;;;;;;40.37;36.33;;;;;;;;;;5074805;28;20426;-83
2021/10/07 09:27:00;;;;;;;39.43;35.53;;;;;;;;;;5075053;28;20418;-83
2021/10/07 09:29:42;;;;;;;39.77;35.80;;;;;;;;;;5074880;28;20418;-81
2021/10/07 09:32:10;;;;;;;37.30;33.37;;;;;;;;;;5072973;28;20452;-80
2021/10/07 09:34:44;;;;;;;39.60;35.77;;;;;;;;;;5074228;28;20417;-81
2021/10/07 09:37:32;;;;;;;37.33;33.60;;;;;;;;;;5074337;28;20410;-81
2021/10/07 09:40:01;;;;;;;35.47;32.23;;;;;;;;;;5070831;28;20440;-80
2021/10/07 09:42:30;;;;;;;37.93;34.20;;;;;;;;;;5072957;28;20417;-81
2021/10/07 09:44:59;;;;;;;37.47;34.03;;;;;;;;;;5074313;28;20597;-81
2021/10/07 09:47:30;;;;;;;35.60;32.50;;;;;;;;;;5074466;28;20438;-81
2021/10/07 09:50:11;;;;;;;37.40;33.90;;;;;;;;;;5074107;28;20977;-81
2021/10/07 09:52:38;;;;;;;38.60;34.27;;;;;;;;;;5074414;28;20518;-81
2021/10/07 09:55:09;;;;;;;36.10;32.47;;;;;;;;;;5074348;28;20409;-81
2021/10/07 09:57:48;;;;;;;35.03;31.83;;;;;;;;;;5073748;28;20416;-82
2021/10/07 10:00:15;;;;;;;36.83;33.50;;;;;;;;;;5073478;28;20430;-80
2021/10/07 10:02:42;;;;;;;37.73;34.13;;;;;;;;;;5073741;28;21230;-81
2021/10/07 10:05:12;;;;;;;39.40;35.70;;;;;;;;;;5073796;28;20453;-80
2021/10/07 10:07:39;;;;;;;37.83;34.20;;;;;;;;;;5073837;28;20921;-81
2021/10/07 10:10:07;;;;;;;38.00;34.30;;;;;;;;;;5073911;28;20421;-83
2021/10/07 10:12:34;;;;;;;36.90;33.57;;;;;;;;;;5073562;28;20441;-81
2021/10/07 10:15:02;;;;;;;35.97;32.57;;;;;;;;;;5073744;28;20464;-81
2021/10/07 10:17:29;;;;;;;37.33;33.90;;;;;;;;;;5073385;28;20963;-80
2021/10/07 10:19:58;;;;;;;35.53;32.33;;;;;;;;;;5073869;28;20438;-81
2021/10/07 10:22:26;;;;;;;38.33;34.67;;;;;;;;;;5073766;28;20434;-80
2021/10/07 10:24:54;;;;;;;38.17;34.67;;;;;;;;;;5073447;28;20934;-80
2021/10/07 10:27:21;;;;;;;37.53;33.80;;;;;;;;;;5073226;28;20934;-81
2021/10/07 10:29:49;;;;;;;36.77;33.57;;;;;;;;;;5073549;28;20440;-81
2021/10/07 10:32:16;;;;;;;34.13;31.23;;;;;;;;;;5073516;28;20421;-81
2021/10/07 10:34:45;;;;;;;32.87;30.00;;;;;;;;;;5073544;28;20499;-81
2021/10/07 10:37:13;;;;;;;35.83;32.60;;;;;;;;;;5073178;28;20560;-82
2021/10/07 10:39:45;;;;;;;35.07;32.03;;;;;;;;;;5073371;28;20412;-81
2021/10/07 10:42:22;;;;;;;35.27;32.07;;;;;;;;;;5073154;28;20420;-81
2021/10/07 10:44:50;;;;;;;36.83;33.17;;;;;;;;;;5073516;28;20441;-83
2021/10/07 10:47:18;;;;;;;32.30;29.43;;;;;;;;;;5073485;28;20446;-83
2021/10/07 10:50:11;;;;;;;34.80;31.77;;;;;;;;;;5072013;28;20460;-84
2021/10/07 10:52:41;;;;;;;33.53;30.63;;;;;;;;;;5073421;28;20442;-83
2021/10/07 10:55:11;;;;;;;34.03;30.93;;;;;;;;;;5073057;28;20525;-82
2021/10/07 10:57:39;;;;;;;30.97;28.37;;;;;;;;;;5073208;28;20884;-83
2021/10/07 11:00:11;;;;;;;31.30;28.80;;;;;;;;;;5073436;28;20430;-83
2021/10/07 11:02:39;;;;;;;28.60;26.30;;;;;;;;;;5073340;28;20431;-83
2021/10/07 11:05:14;;;;;;;30.93;28.43;;;;;;;;;;5073175;28;20449;-84
2021/10/07 11:07:42;;;;;;;29.93;27.43;;;;;;;;;;5071863;28;20937;-83
2021/10/07 11:10:14;;;;;;;30.77;28.03;;;;;;;;;;5072287;28;20431;-83
2021/10/07 11:12:48;;;;;;;29.70;27.20;;;;;;;;;;5072903;28;20448;-83
2021/10/07 11:15:16;;;;;;;30.23;27.50;;;;;;;;;;5072605;28;20410;-83
2021/10/07 11:17:44;;;;;;;30.73;28.03;;;;;;;;;;5073332;28;20484;-83
2021/10/07 11:20:14;;;;;;;28.73;26.43;;;;;;;;;;5073381;28;20416;-83
2021/10/07 11:22:41;;;;;;;29.20;26.80;;;;;;;;;;5072756;28;20410;-83
2021/10/07 11:25:10;;;;;;;28.23;26.13;;;;;;;;;;5072579;28;20439;-83
2021/10/07 11:27:40;;;;;;;28.70;26.33;;;;;;;;;;5072711;28;20420;-83
2021/10/07 11:30:09;;;;;;;29.30;26.70;;;;;;;;;;5078213;28;20840;-83
2021/10/07 11:32:36;;;;;;;28.87;26.63;;;;;;;;;;5078463;28;20426;-83
2021/10/07 11:35:07;;;;;;;29.07;26.67;;;;;;;;;;5071881;28;20963;-82
2021/10/07 11:37:55;;;;;;;30.03;27.30;;;;;;;;;;5083508;28;20425;-83
2021/10/07 11:40:24;;;;;;;30.43;27.90;;;;;;;;;;5072343;28;20880;-83
2021/10/07 11:42:53;;;;;;;29.57;26.97;;;;;;;;;;5072545;28;20905;-83
2021/10/07 11:45:23;;;;;;;30.17;27.67;;;;;;;;;;5071267;28;20452;-83
2021/10/07 11:47:51;;;;;;;31.33;28.60;;;;;;;;;;5072537;28;20414;-82
2021/10/07 11:50:20;;;;;;;32.27;29.43;;;;;;;;;;5072622;28;20997;-82
2021/10/07 11:52:47;;;;;;;30.30;27.53;;;;;;;;;;5072518;28;20405;-82
2021/10/07 11:55:15;;;;;;;29.80;27.50;;;;;;;;;;5072783;28;20525;-82
2021/10/07 11:57:52;;;;;;;29.40;27.00;;;;;;;;;;5072184;28;20879;-82
2021/10/07 12:00:37;;;;;;;29.23;26.90;;;;;;;;;;5072290;28;20920;-81
2021/10/07 12:03:09;;;;;;;28.50;26.43;;;;;;;;;;5072395;28;20769;-81
2021/10/07 12:05:36;;;;;;;27.63;25.53;;;;;;;;;;5072361;28;20449;-82
2021/10/07 12:08:05;;;;;;;29.43;27.03;;;;;;;;;;5072356;28;20434;-81
2021/10/07 12:10:33;;;;;;;28.83;26.63;;;;;;;;;;5070492;28;20886;-89
2021/10/07 12:13:10;;;;;;;30.13;27.53;;;;;;;;;;5073418;28;20442;-84
2021/10/07 12:15:40;;;;;;;30.30;27.80;;;;;;;;;;5073064;28;20435;-84
2021/10/07 12:18:08;;;;;;;31.33;28.40;;;;;;;;;;5072528;28;20485;-85
2021/10/07 12:20:35;;;;;;;30.47;28.03;;;;;;;;;;5073267;28;20447;-85
2021/10/07 12:23:03;;;;;;;28.53;26.23;;;;;;;;;;5076361;28;20451;-85
2021/10/07 12:25:38;;;;;;;28.67;26.37;;;;;;;;;;5077575;28;20406;-86
2021/10/07 12:28:05;;;;;;;28.90;26.60;;;;;;;;;;5074374;28;20435;-81
2021/10/07 12:30:33;;;;;;;27.80;25.67;;;;;;;;;;5075757;28;20493;-81
2021/10/07 12:33:15;;;;;;;29.27;26.87;;;;;;;;;;5075997;28;20413;-86
2021/10/07 12:35:54;;;;;;;28.17;25.87;;;;;;;;;;5076111;28;20480;-87
2021/10/07 12:38:21;;;;;;;28.20;26.00;;;;;;;;;;5076720;28;20735;-85
2021/10/07 12:40:51;;;;;;;29.20;26.90;;;;;;;;;;5076429;28;20417;-85
2021/10/07 12:43:19;;;;;;;28.63;26.30;;;;;;;;;;5076380;28;20409;-86
2021/10/07 12:46:02;;;;;;;29.23;26.73;;;;;;;;;;5075971;28;20508;-84
2021/10/07 12:48:44;;;;;;;29.53;27.20;;;;;;;;;;5075982;28;20449;-85
2021/10/07 12:51:13;;;;;;;29.57;27.07;;;;;;;;;;5076480;28;20441;-88
2021/10/07 12:53:42;;;;;;;30.20;27.80;;;;;;;;;;5077273;28;20431;-88
2021/10/07 12:56:13;;;;;;;27.90;25.80;;;;;;;;;;5076997;28;20414;-82
2021/10/07 12:58:47;;;;;;;28.43;26.13;;;;;;;;;;5074556;28;20436;-81
2021/10/07 13:01:15;;;;;;;28.87;26.67;;;;;;;;;;5075325;28;20412;-80
2021/10/07 13:03:42;;;;;;;28.10;25.77;;;;;;;;;;5075457;28;20444;-93
2021/10/07 13:06:09;;;;;;;27.30;25.40;;;;;;;;;;5078405;28;20460;-88
2021/10/07 13:08:39;;;;;;;28.40;25.97;;;;;;;;;;5076589;28;20422;-87
2021/10/07 13:11:06;;;;;;;30.07;27.57;;;;;;;;;;5075071;28;20443;-88
2021/10/07 13:13:34;;;;;;;29.03;26.73;;;;;;;;;;5076770;28;20446;-80
2021/10/07 13:16:02;;;;;;;30.13;27.53;;;;;;;;;;5075097;28;20419;-80
2021/10/07 13:18:29;;;;;;;28.97;26.77;;;;;;;;;;5075005;28;20478;-81
2021/10/07 13:20:56;;;;;;;28.80;26.63;;;;;;;;;;5074745;28;20442;-80
2021/10/07 13:23:24;;;;;;;29.60;27.03;;;;;;;;;;5074309;28;20400;-80
2021/10/07 13:25:52;;;;;;;27.60;25.50;;;;;;;;;;5074131;28;20488;-80
2021/10/07 13:28:20;;;;;;;28.30;26.10;;;;;;;;;;5074399;28;20891;-81
2021/10/07 13:30:47;;;;;;;27.87;25.87;;;;;;;;;;5074410;28;20446;-85
2021/10/07 13:33:15;;;;;;;28.17;26.10;;;;;;;;;;5074462;28;20413;-81
2021/10/07 13:35:42;;;;;;;28.33;25.70;;;;;;;;;;5074585;28;20439;-81
2021/10/07 13:38:10;;;;;;;27.87;25.77;;;;;;;;;;5074368;28;20847;-81
2021/10/07 13:40:37;;;;;;;27.10;25.20;;;;;;;;;;5074695;28;20421;-80
2021/10/07 13:43:06;;;;;;;29.03;26.50;;;;;;;;;;5074591;28;20417;-90
2021/10/07 13:45:33;;;;;;;28.27;26.20;;;;;;;;;;5074856;28;20422;-81
2021/10/07 13:48:01;;;;;;;27.00;25.10;;;;;;;;;;5074469;28;20505;-82
2021/10/07 13:50:29;;;;;;;29.10;27.07;;;;;;;;;;5074248;28;20457;-79
2021/10/07 13:52:56;;;;;;;29.13;26.83;;;;;;;;;;5074036;28;20446;-81
2021/10/07 13:55:24;;;;;;;28.20;26.20;;;;;;;;;;5074308;28;20430;-84
2021/10/07 13:57:51;;;;;;;26.37;24.37;;;;;;;;;;5075105;28;20406;-82
2021/10/07 14:00:20;;;;;;;27.93;25.83;;;;;;;;;;5074025;28;20485;-81
2021/10/07 14:02:49;;;;;;;28.30;26.20;;;;;;;;;;5073931;28;20420;-81
2021/10/07 14:05:18;;;;;;;27.20;25.20;;;;;;;;;;5072584;28;20474;-82
2021/10/07 14:07:45;;;;;;;29.00;27.00;;;;;;;;;;5074018;28;20482;-82
2021/10/07 14:10:13;;;;;;;28.03;25.93;;;;;;;;;;5074128;28;20875;-82
2021/10/07 14:12:40;;;;;;;27.77;25.63;;;;;;;;;;5074154;28;20413;-82
2021/10/07 14:15:08;;;;;;;28.70;26.60;;;;;;;;;;5073232;28;20438;-83
2021/10/07 14:17:37;;;;;;;26.43;24.60;;;;;;;;;;5073342;28;20791;-82
2021/10/07 14:20:05;;;;;;;26.53;24.60;;;;;;;;;;5072840;28;20422;-82
2021/10/07 14:22:32;;;;;;;26.53;24.63;;;;;;;;;;5073434;28;20443;-81
2021/10/07 14:25:00;;;;;;;27.00;25.00;;;;;;;;;;5073515;28;20420;-81
2021/10/07 14:27:27;;;;;;;26.77;24.97;;;;;;;;;;5073357;28;20458;-81
2021/10/07 14:29:54;;;;;;;27.10;25.20;;;;;;;;;;5073525;28;20478;-80